LEI weather

Almería International Airport
Almería, Andalucía, Spain

Public forecast

Using degrees Celsius for public forecast. Weather courtesy of forecast.io.

Current aviation weather report (METAR) for Almería International Airport

Retrieved 2020/06/05 22:30 UTC (21 minutes ago):

LEAM 052230Z AUTO 10003KT CAVOK 20/18 Q1012

Aviation forecast (TAF) for Almería International Airport

Retrieved 2020/06/05 21:27 UTC (1 hour ago):

TAF LEAM 052000Z 0521/0621 VRB02KT CAVOK TX26/0614Z TN17/0605Z BECMG 0607/0610 22016KT TEMPO 0611/0619 22024G34KT